createdAt,value
2022-10-08T00:01:13.041Z,9.02
2022-10-08T00:03:43.723Z,11.25
2022-10-08T00:06:25.522Z,11.23
2022-10-08T00:08:54.815Z,10.85
2022-10-08T00:11:30.291Z,10.57
2022-10-08T00:13:58.065Z,10.07
2022-10-08T00:16:26.771Z,9.20
2022-10-08T00:18:56.365Z,9.77
2022-10-08T00:21:35.079Z,9.40
2022-10-08T00:24:03.716Z,9.20
2022-10-08T00:26:32.443Z,8.05
2022-10-08T00:29:02.008Z,9.75
2022-10-08T00:31:34.167Z,9.73
2022-10-08T00:34:04.488Z,10.13
2022-10-08T00:36:32.877Z,8.98
2022-10-08T00:39:07.506Z,9.50
2022-10-08T00:41:38.341Z,9.25
2022-10-08T00:44:42.433Z,8.70
2022-10-08T00:47:20.792Z,8.20
2022-10-08T00:49:49.710Z,8.27
2022-10-08T00:52:17.495Z,8.38
2022-10-08T00:54:45.535Z,9.25
2022-10-08T00:57:12.601Z,8.98
2022-10-08T00:59:39.483Z,9.27
2022-10-08T01:02:17.756Z,8.45
2022-10-08T01:04:44.683Z,8.18
2022-10-08T01:07:23.826Z,7.62
2022-10-08T01:10:15.720Z,8.57
2022-10-08T01:13:00.022Z,8.20
2022-10-08T01:15:35.532Z,9.02
2022-10-08T01:18:17.749Z,8.82
2022-10-08T01:20:54.961Z,8.75
2022-10-08T01:26:17.236Z,8.45
2022-10-08T01:28:57.620Z,8.90
2022-10-08T01:31:41.399Z,9.57
2022-10-08T01:34:24.277Z,10.20
2022-10-08T01:36:51.788Z,10.45
2022-10-08T01:39:20.531Z,10.23
2022-10-08T01:41:53.795Z,9.63
2022-10-08T01:44:26.858Z,8.73
2022-10-08T01:46:57.156Z,8.50
2022-10-08T01:49:26.437Z,8.98
2022-10-08T01:51:57.345Z,7.55
2022-10-08T01:54:25.717Z,7.35
2022-10-08T01:56:54.121Z,6.93
2022-10-08T01:59:26.571Z,7.22
2022-10-08T02:01:59.673Z,8.35
2022-10-08T02:04:37.108Z,8.50
2022-10-08T02:07:22.498Z,8.93
2022-10-08T02:09:54.082Z,8.63
2022-10-08T02:12:23.279Z,10.13
2022-10-08T02:14:54.898Z,10.15
2022-10-08T02:17:43.879Z,9.98
2022-10-08T02:20:33.995Z,9.38
2022-10-08T02:23:37.646Z,9.63
2022-10-08T02:26:07.220Z,9.10
2022-10-08T02:28:50.928Z,9.75
2022-10-08T02:31:36.025Z,8.30
2022-10-08T02:34:30.919Z,7.95
2022-10-08T02:37:22.053Z,8.38
2022-10-08T02:39:59.713Z,8.55
2022-10-08T02:42:27.884Z,8.70
2022-10-08T02:45:19.554Z,10.25
2022-10-08T02:47:50.225Z,9.05
2022-10-08T02:50:19.379Z,9.60
2022-10-08T02:52:47.747Z,9.13
2022-10-08T02:55:40.429Z,10.25
2022-10-08T02:58:10.159Z,10.18
2022-10-08T03:00:41.660Z,10.25
2022-10-08T03:03:16.811Z,10.15
2022-10-08T03:05:44.387Z,12.07
2022-10-08T03:08:13.221Z,10.80
2022-10-08T03:10:40.970Z,11.02
2022-10-08T03:13:08.112Z,10.27
2022-10-08T03:15:35.575Z,12.32
2022-10-08T03:18:06.849Z,10.32
2022-10-08T03:20:34.255Z,10.10
2022-10-08T03:23:02.226Z,10.52
2022-10-08T03:25:29.103Z,9.23
2022-10-08T03:27:55.998Z,12.00
2022-10-08T03:30:22.880Z,13.48
2022-10-08T03:32:49.982Z,10.40
2022-10-08T03:35:16.953Z,10.38
2022-10-08T03:37:43.796Z,12.57
2022-10-08T03:40:11.061Z,12.20
2022-10-08T03:42:38.233Z,12.45
2022-10-08T03:45:06.101Z,11.20
2022-10-08T03:47:32.972Z,11.38
2022-10-08T03:49:59.908Z,15.25
2022-10-08T03:52:26.913Z,15.27
2022-10-08T03:54:53.783Z,11.43
2022-10-08T03:57:20.632Z,12.85
2022-10-08T03:59:47.491Z,13.82
2022-10-08T04:02:14.701Z,11.55
2022-10-08T04:04:41.586Z,12.37
2022-10-08T04:07:08.440Z,12.05
2022-10-08T04:09:35.277Z,14.32
2022-10-08T04:12:02.105Z,14.02
2022-10-08T04:14:29.010Z,14.87
2022-10-08T04:16:55.839Z,18.20
2022-10-08T04:19:22.724Z,19.12
2022-10-08T04:21:49.562Z,16.37
2022-10-08T04:24:16.463Z,14.50
2022-10-08T04:26:43.282Z,16.12
2022-10-08T04:29:12.676Z,14.60
2022-10-08T04:31:40.466Z,13.68
2022-10-08T04:34:07.512Z,10.52
2022-10-08T04:36:34.373Z,13.40
2022-10-08T04:39:01.196Z,13.57
2022-10-08T04:41:28.125Z,13.02
2022-10-08T04:44:00.400Z,11.85
2022-10-08T04:46:27.568Z,13.05
2022-10-08T04:48:56.133Z,12.40
2022-10-08T04:51:25.327Z,11.63
2022-10-08T04:53:54.618Z,11.57
2022-10-08T04:56:27.269Z,12.90
2022-10-08T04:58:57.784Z,14.25
2022-10-08T05:01:25.761Z,14.13
2022-10-08T05:03:54.382Z,12.93
2022-10-08T05:06:23.691Z,13.18
2022-10-08T05:08:50.952Z,14.85
2022-10-08T05:11:18.928Z,13.95
2022-10-08T05:13:55.845Z,15.98
2022-10-08T05:16:23.295Z,13.40
2022-10-08T05:18:52.128Z,12.55
2022-10-08T05:21:24.577Z,11.40
2022-10-08T05:24:11.331Z,12.45
2022-10-08T05:26:58.156Z,12.10
2022-10-08T05:29:26.063Z,15.00
2022-10-08T05:31:52.976Z,15.43
2022-10-08T05:34:19.928Z,14.63
2022-10-08T05:36:46.806Z,13.32
2022-10-08T05:39:13.995Z,12.90
2022-10-08T05:41:41.341Z,12.20
2022-10-08T05:44:09.775Z,15.50
2022-10-08T05:46:37.635Z,13.10
2022-10-08T05:49:07.212Z,12.80
2022-10-08T05:51:34.193Z,12.52
2022-10-08T05:54:01.394Z,15.80
2022-10-08T05:56:29.094Z,13.40
2022-10-08T05:58:56.107Z,14.98
2022-10-08T06:01:24.832Z,16.00
2022-10-08T06:03:56.131Z,13.10
2022-10-08T06:06:23.651Z,13.80
2022-10-08T06:08:58.766Z,13.55
2022-10-08T06:11:30.198Z,18.30
2022-10-08T06:13:58.837Z,16.92
2022-10-08T06:16:26.693Z,13.88
2022-10-08T06:18:54.097Z,15.52
2022-10-08T06:21:23.127Z,14.93
2022-10-08T06:23:57.879Z,15.18
2022-10-08T06:26:31.628Z,12.57
2022-10-08T06:29:01.482Z,15.05
2022-10-08T06:31:28.608Z,15.32
2022-10-08T06:33:58.776Z,14.68
2022-10-08T06:36:27.324Z,13.80
2022-10-08T06:38:56.544Z,14.85
2022-10-08T06:41:24.223Z,13.38
2022-10-08T06:43:51.275Z,13.55
2022-10-08T06:46:19.398Z,18.45
2022-10-08T06:48:46.752Z,13.70
2022-10-08T06:51:16.105Z,14.13
2022-10-08T06:53:43.554Z,14.70
2022-10-08T06:56:14.689Z,15.73
2022-10-08T06:58:44.018Z,18.25
2022-10-08T07:01:16.631Z,14.95
2022-10-08T07:03:43.687Z,13.57
2022-10-08T07:06:11.908Z,16.25
2022-10-08T07:08:39.390Z,19.55
2022-10-08T07:11:17.306Z,22.05
2022-10-08T07:13:45.046Z,16.60
2022-10-08T07:16:20.969Z,18.42
2022-10-08T07:18:49.933Z,24.55
2022-10-08T07:21:18.230Z,18.95
2022-10-08T07:23:45.562Z,18.52
2022-10-08T07:26:14.988Z,18.60
2022-10-08T07:28:48.040Z,17.35
2022-10-08T07:31:19.711Z,19.83
2022-10-08T07:33:46.637Z,17.40
2022-10-08T07:36:16.019Z,18.67
2022-10-08T07:38:43.205Z,19.00
2022-10-08T07:41:11.186Z,17.75
2022-10-08T07:43:41.410Z,17.65
2022-10-08T07:46:10.171Z,18.95
2022-10-08T07:48:37.672Z,19.37
2022-10-08T07:51:12.424Z,20.95
2022-10-08T07:53:40.143Z,17.98
2022-10-08T07:56:08.325Z,20.85
2022-10-08T07:58:35.775Z,21.45
2022-10-08T08:01:04.320Z,19.77
2022-10-08T08:03:31.307Z,18.65
2022-10-08T08:06:03.353Z,19.30
2022-10-08T08:08:30.480Z,21.75
2022-10-08T08:11:00.806Z,21.48
2022-10-08T08:13:31.879Z,19.55
2022-10-08T08:16:06.874Z,20.60
2022-10-08T08:18:35.742Z,20.67
2022-10-08T08:21:05.123Z,22.90
2022-10-08T08:23:53.067Z,22.50
2022-10-08T08:26:21.333Z,21.48
2022-10-08T08:28:56.226Z,22.73
2022-10-08T08:31:25.745Z,23.45
2022-10-08T08:33:58.154Z,22.80
2022-10-08T08:36:27.886Z,23.12
2022-10-08T08:38:55.391Z,22.83
2022-10-08T08:41:40.985Z,23.65
2022-10-08T08:44:17.429Z,23.85
2022-10-08T08:46:48.419Z,23.60
2022-10-08T08:49:42.595Z,24.48
2022-10-08T08:52:11.196Z,24.48
2022-10-08T08:54:38.180Z,25.40
2022-10-08T08:57:26.761Z,24.67
2022-10-08T08:59:55.680Z,24.20
2022-10-08T09:02:33.426Z,22.98
2022-10-08T09:05:04.104Z,23.10
2022-10-08T09:07:39.462Z,22.23
2022-10-08T09:10:10.509Z,21.65
2022-10-08T09:12:39.788Z,23.73
2022-10-08T09:15:26.887Z,23.62
2022-10-08T09:17:53.867Z,23.65
2022-10-08T09:20:23.513Z,23.23
2022-10-08T09:22:51.428Z,23.77
2022-10-08T09:25:21.696Z,23.40
2022-10-08T09:27:51.587Z,23.23
2022-10-08T09:30:24.733Z,23.12
2022-10-08T09:32:53.866Z,22.70
2022-10-08T09:35:21.081Z,22.00
2022-10-08T09:37:48.988Z,19.85
2022-10-08T09:40:27.605Z,20.67
2022-10-08T09:43:15.835Z,20.58
2022-10-08T09:45:47.835Z,20.88
2022-10-08T09:48:21.450Z,20.58
2022-10-08T09:51:05.442Z,21.42
2022-10-08T09:53:39.780Z,20.37
2022-10-08T09:56:08.055Z,19.75
2022-10-08T09:58:48.432Z,19.92
2022-10-08T10:01:16.841Z,18.12
2022-10-08T10:03:57.078Z,17.85
2022-10-08T10:06:29.594Z,18.33
2022-10-08T10:09:17.069Z,18.95
2022-10-08T10:11:49.966Z,15.18
2022-10-08T10:14:35.203Z,15.45
2022-10-08T10:17:25.701Z,13.50
2022-10-08T10:19:59.384Z,14.63
2022-10-08T10:22:44.992Z,14.90
2022-10-08T10:25:12.019Z,14.70
2022-10-08T10:27:42.689Z,15.27
2022-10-08T10:30:22.824Z,15.70
2022-10-08T10:33:04.796Z,11.43
2022-10-08T10:35:32.859Z,11.52
2022-10-08T10:38:16.511Z,12.48
2022-10-08T10:40:46.197Z,15.68
2022-10-08T10:43:25.607Z,13.75
2022-10-08T10:46:17.069Z,15.25
2022-10-08T10:48:43.961Z,12.63
2022-10-08T10:51:37.651Z,12.23
2022-10-08T10:54:22.967Z,13.52
2022-10-08T10:56:55.105Z,13.25
2022-10-08T10:59:34.911Z,12.23
2022-10-08T11:02:15.666Z,12.65
2022-10-08T11:05:02.084Z,13.00
2022-10-08T11:07:59.409Z,13.67
2022-10-08T11:10:38.614Z,13.10
2022-10-08T11:13:36.174Z,12.57
2022-10-08T11:16:21.000Z,11.20
2022-10-08T11:18:56.070Z,11.45
2022-10-08T11:21:54.156Z,12.30
2022-10-08T11:27:21.507Z,11.52
2022-10-08T11:30:12.318Z,11.85
2022-10-08T11:32:41.238Z,11.65
2022-10-08T11:35:28.566Z,11.27
2022-10-08T11:37:58.748Z,11.80
2022-10-08T11:40:36.877Z,10.98
2022-10-08T11:43:28.232Z,11.27
2022-10-08T11:46:31.822Z,10.43
2022-10-08T11:49:11.632Z,10.50
2022-10-08T11:51:42.370Z,11.12
2022-10-08T11:54:38.709Z,11.50
2022-10-08T11:57:16.928Z,10.50
2022-10-08T11:59:48.436Z,11.52
2022-10-08T12:02:23.745Z,10.90
2022-10-08T12:04:52.545Z,11.27
2022-10-08T12:07:26.708Z,11.35
2022-10-08T12:10:05.875Z,10.95
2022-10-08T12:12:51.624Z,10.75
2022-10-08T12:15:24.625Z,10.73
2022-10-08T12:17:55.950Z,10.85
2022-10-08T12:20:25.529Z,9.90
2022-10-08T12:23:21.552Z,11.10
2022-10-08T12:25:49.553Z,10.15
2022-10-08T12:28:19.348Z,10.90
2022-10-08T12:30:48.281Z,10.77
2022-10-08T12:33:16.301Z,10.55
2022-10-08T12:36:11.186Z,9.40
2022-10-08T12:38:56.197Z,9.15
2022-10-08T12:41:30.417Z,10.57
2022-10-08T12:44:03.238Z,10.32
2022-10-08T12:46:35.894Z,10.35
2022-10-08T12:49:35.730Z,10.18
2022-10-08T12:52:17.232Z,10.48
2022-10-08T12:54:50.774Z,10.45
2022-10-08T12:57:40.925Z,9.45
2022-10-08T13:00:18.697Z,8.98
2022-10-08T13:03:20.325Z,10.48
2022-10-08T13:05:50.384Z,9.15
2022-10-08T13:08:30.626Z,9.48
2022-10-08T13:10:58.966Z,9.88
2022-10-08T13:13:41.347Z,9.18
2022-10-08T13:16:17.119Z,9.75
2022-10-08T13:18:47.133Z,9.60
2022-10-08T13:21:32.090Z,10.00
2022-10-08T13:24:11.547Z,8.43
2022-10-08T13:26:41.395Z,9.55
2022-10-08T13:29:21.456Z,9.45
2022-10-08T13:32:13.698Z,9.25
2022-10-08T13:34:40.632Z,8.63
2022-10-08T13:37:22.990Z,9.38
2022-10-08T13:39:57.937Z,9.32
2022-10-08T13:42:35.544Z,9.30
2022-10-08T13:45:04.631Z,9.48
2022-10-08T13:47:31.469Z,9.10
2022-10-08T13:50:02.320Z,8.88
2022-10-08T13:52:30.372Z,8.88
2022-10-08T13:55:00.404Z,8.68
2022-10-08T13:57:27.339Z,8.63
2022-10-08T13:59:54.172Z,8.25
2022-10-08T14:02:21.175Z,8.57
2022-10-08T14:04:48.065Z,8.20
2022-10-08T14:07:21.065Z,8.45
2022-10-08T14:09:48.094Z,8.23
2022-10-08T14:12:15.084Z,8.50
2022-10-08T14:14:41.926Z,8.30
2022-10-08T14:17:08.760Z,8.68
2022-10-08T14:19:35.601Z,8.82
2022-10-08T14:22:02.489Z,8.55
2022-10-08T14:24:29.379Z,8.40
2022-10-08T14:26:56.176Z,7.97
2022-10-08T14:29:23.023Z,8.15
2022-10-08T14:31:49.971Z,8.73
2022-10-08T14:34:16.890Z,8.23
2022-10-08T14:36:43.809Z,8.02
2022-10-08T14:39:10.677Z,8.23
2022-10-08T14:41:38.280Z,9.55
2022-10-08T14:44:05.195Z,8.98
2022-10-08T14:46:32.110Z,8.63
2022-10-08T14:48:59.063Z,9.52
2022-10-08T14:51:25.905Z,9.90
2022-10-08T14:53:53.065Z,9.35
2022-10-08T14:56:19.997Z,9.50
2022-10-08T14:58:46.830Z,10.00
2022-10-08T15:01:13.663Z,10.35
2022-10-08T15:03:40.565Z,9.90
2022-10-08T15:06:07.659Z,10.20
2022-10-08T15:08:34.502Z,11.70
2022-10-08T15:11:03.506Z,10.82
2022-10-08T15:13:30.597Z,11.05
2022-10-08T15:15:57.545Z,11.20
2022-10-08T15:18:24.721Z,10.45
2022-10-08T15:21:00.130Z,10.60
2022-10-08T15:23:27.384Z,10.82
2022-10-08T15:25:59.588Z,10.38
2022-10-08T15:28:28.051Z,10.43
2022-10-08T15:31:06.177Z,10.50
2022-10-08T15:33:46.897Z,10.57
2022-10-08T15:36:18.973Z,10.25
2022-10-08T15:38:46.920Z,9.55
2022-10-08T15:41:15.280Z,10.27
2022-10-08T15:43:42.191Z,10.23
2022-10-08T15:46:15.045Z,10.32
2022-10-08T15:48:41.987Z,11.30
2022-10-08T15:51:09.235Z,12.02
2022-10-08T15:53:37.659Z,13.88
2022-10-08T15:56:05.698Z,15.30
2022-10-08T15:58:49.833Z,13.75
2022-10-08T16:01:19.419Z,13.02
2022-10-08T16:03:48.210Z,14.07
2022-10-08T16:06:23.653Z,15.05
2022-10-08T16:08:50.565Z,13.38
2022-10-08T16:11:37.012Z,14.05
2022-10-08T16:14:08.675Z,11.98
2022-10-08T16:16:36.534Z,11.50
2022-10-08T16:19:05.821Z,11.10
2022-10-08T16:21:34.232Z,12.00
2022-10-08T16:24:01.814Z,11.73
2022-10-08T16:26:31.881Z,10.25
2022-10-08T16:29:00.756Z,9.50
2022-10-08T16:31:30.488Z,10.38
2022-10-08T16:34:03.810Z,10.23
2022-10-08T16:36:31.640Z,10.38
2022-10-08T16:38:58.689Z,10.25
2022-10-08T16:41:28.659Z,10.27
2022-10-08T16:43:57.649Z,9.82
2022-10-08T16:46:27.530Z,9.32
2022-10-08T16:49:22.703Z,9.90
2022-10-08T16:51:52.807Z,9.85
2022-10-08T16:54:19.795Z,10.57
2022-10-08T16:56:47.061Z,9.73
2022-10-08T16:59:21.540Z,9.52
2022-10-08T17:01:50.883Z,9.23
2022-10-08T17:04:18.910Z,9.57
2022-10-08T17:06:46.576Z,9.73
2022-10-08T17:09:13.470Z,9.73
2022-10-08T17:11:41.424Z,9.73
2022-10-08T17:14:10.277Z,10.15
2022-10-08T17:16:37.978Z,10.32
2022-10-08T17:19:05.047Z,9.80
2022-10-08T17:21:35.037Z,9.60
2022-10-08T17:24:02.835Z,9.98
2022-10-08T17:26:30.712Z,10.13
2022-10-08T17:28:58.130Z,10.13
2022-10-08T17:31:27.068Z,10.15
2022-10-08T17:33:54.452Z,10.55
2022-10-08T17:36:26.721Z,10.00
2022-10-08T17:38:55.764Z,10.15
2022-10-08T17:41:36.428Z,10.63
2022-10-08T17:44:05.394Z,11.07
2022-10-08T17:46:35.140Z,11.48
2022-10-08T17:49:02.298Z,11.18
2022-10-08T17:51:30.153Z,11.75
2022-10-08T17:54:02.231Z,11.48
2022-10-08T17:56:29.428Z,15.50
2022-10-08T17:58:56.807Z,12.27
2022-10-08T18:01:39.184Z,14.38
2022-10-08T18:04:10.228Z,19.87
2022-10-08T18:06:40.963Z,17.23
2022-10-08T18:09:11.032Z,14.93
2022-10-08T18:11:41.662Z,14.68
2022-10-08T18:14:08.623Z,11.77
2022-10-08T18:16:35.976Z,11.12
2022-10-08T18:19:08.393Z,10.75
2022-10-08T18:21:36.079Z,10.57
2022-10-08T18:24:03.096Z,12.02
2022-10-08T18:26:35.020Z,11.07
2022-10-08T18:29:04.319Z,11.90
2022-10-08T18:31:33.305Z,11.02
2022-10-08T18:34:02.741Z,11.52
2022-10-08T18:36:31.505Z,12.37
2022-10-08T18:38:58.314Z,11.57
2022-10-08T18:41:28.287Z,11.70
2022-10-08T18:43:55.752Z,11.60
2022-10-08T18:46:23.246Z,12.30
2022-10-08T18:48:50.153Z,12.10
2022-10-08T18:51:22.615Z,11.95
2022-10-08T18:53:50.105Z,11.40
2022-10-08T18:56:22.326Z,10.88
2022-10-08T18:58:52.812Z,12.73
2022-10-08T19:01:22.110Z,13.18
2022-10-08T19:03:50.736Z,13.15
2022-10-08T19:06:19.330Z,13.73
2022-10-08T19:08:47.121Z,13.32
2022-10-08T19:11:16.724Z,14.40
2022-10-08T19:13:44.719Z,11.70
2022-10-08T19:16:15.725Z,11.27
2022-10-08T19:18:44.327Z,12.65
2022-10-08T19:21:12.807Z,12.48
2022-10-08T19:23:40.227Z,12.25
2022-10-08T19:26:07.263Z,12.88
2022-10-08T19:28:37.101Z,13.70
2022-10-08T19:31:24.768Z,13.18
2022-10-08T19:33:54.145Z,14.32
2022-10-08T19:36:21.968Z,12.23
2022-10-08T19:38:57.035Z,12.40
2022-10-08T19:41:24.494Z,11.52
2022-10-08T19:43:52.187Z,11.07
2022-10-08T19:46:19.827Z,11.32
2022-10-08T19:48:50.910Z,10.70
2022-10-08T19:51:18.652Z,10.80
2022-10-08T19:53:45.783Z,11.12
2022-10-08T19:56:13.404Z,10.65
2022-10-08T19:58:46.215Z,11.27
2022-10-08T20:01:17.745Z,11.98
2022-10-08T20:03:44.767Z,11.38
2022-10-08T20:06:21.684Z,10.88
2022-10-08T20:08:52.242Z,11.63
2022-10-08T20:11:19.657Z,12.23
2022-10-08T20:13:47.733Z,12.37
2022-10-08T20:16:23.269Z,12.05
2022-10-08T20:18:59.555Z,12.88
2022-10-08T20:21:28.147Z,12.80
2022-10-08T20:23:55.385Z,13.90
2022-10-08T20:26:29.695Z,13.07
2022-10-08T20:29:07.472Z,13.40
2022-10-08T20:31:37.261Z,13.90
2022-10-08T20:34:07.324Z,12.32
2022-10-08T20:36:34.808Z,12.68
2022-10-08T20:39:01.692Z,12.75
2022-10-08T20:41:31.201Z,12.00
2022-10-08T20:44:03.200Z,12.82
2022-10-08T20:46:31.040Z,12.93
2022-10-08T20:48:58.002Z,13.15
2022-10-08T20:51:26.269Z,12.98
2022-10-08T20:54:00.905Z,13.82
2022-10-08T20:56:29.643Z,13.95
2022-10-08T20:58:57.014Z,14.52
2022-10-08T21:01:26.469Z,13.90
2022-10-08T21:03:54.702Z,13.98
2022-10-08T21:06:27.788Z,13.82
2022-10-08T21:08:56.044Z,14.18
2022-10-08T21:11:25.022Z,14.20
2022-10-08T21:13:52.309Z,14.18
2022-10-08T21:16:27.610Z,13.55
2022-10-08T21:18:56.690Z,13.55
2022-10-08T21:21:23.997Z,14.70
2022-10-08T21:23:51.109Z,14.02
2022-10-08T21:26:24.719Z,14.70
2022-10-08T21:28:53.688Z,13.57
2022-10-08T21:31:21.364Z,13.52
2022-10-08T21:33:50.238Z,13.25
2022-10-08T21:36:28.992Z,14.60
2022-10-08T21:38:56.156Z,13.13
2022-10-08T21:41:24.305Z,13.18
2022-10-08T21:43:54.900Z,14.32
2022-10-08T21:46:25.002Z,13.95
2022-10-08T21:48:59.626Z,14.50
2022-10-08T21:51:27.780Z,14.70
2022-10-08T21:53:56.796Z,14.27
2022-10-08T21:56:29.481Z,14.98
2022-10-08T21:58:59.224Z,14.68
2022-10-08T22:01:28.759Z,15.35
2022-10-08T22:03:57.391Z,16.27
2022-10-08T22:06:24.631Z,15.63
2022-10-08T22:08:51.698Z,14.07
2022-10-08T22:11:19.111Z,14.63
2022-10-08T22:13:46.560Z,15.50
2022-10-08T22:16:14.927Z,15.05
2022-10-08T22:18:41.965Z,16.10
2022-10-08T22:21:13.231Z,15.68
2022-10-08T22:23:40.180Z,17.00
2022-10-08T22:26:14.067Z,16.17
2022-10-08T22:28:41.164Z,16.58
2022-10-08T22:31:09.594Z,16.75
2022-10-08T22:33:37.052Z,18.12
2022-10-08T22:36:04.863Z,18.45
2022-10-08T22:38:36.801Z,18.85
2022-10-08T22:41:09.208Z,16.83
2022-10-08T22:43:37.125Z,17.33
2022-10-08T22:46:08.290Z,18.17
2022-10-08T22:48:35.503Z,20.52
2022-10-08T22:51:08.421Z,21.20
2022-10-08T22:53:35.617Z,18.65
2022-10-08T22:56:12.887Z,19.55
2022-10-08T22:58:39.885Z,18.12
2022-10-08T23:01:09.604Z,19.65
2022-10-08T23:03:36.813Z,18.87
2022-10-08T23:06:24.319Z,18.08
2022-10-08T23:08:59.589Z,16.98
2022-10-08T23:11:26.901Z,17.75
2022-10-08T23:13:55.841Z,17.42
2022-10-08T23:16:23.706Z,18.27
2022-10-08T23:18:56.239Z,17.60
2022-10-08T23:21:23.828Z,17.35
2022-10-08T23:23:51.238Z,16.45
2022-10-08T23:26:18.508Z,16.87
2022-10-08T23:28:49.323Z,16.65
2022-10-08T23:31:18.285Z,16.58
2022-10-08T23:33:48.118Z,16.50
2022-10-08T23:36:19.834Z,15.05
2022-10-08T23:38:46.774Z,16.73
2022-10-08T23:41:14.080Z,16.48
2022-10-08T23:43:45.784Z,16.10
2022-10-08T23:46:14.636Z,15.90
2022-10-08T23:48:42.159Z,14.75
2022-10-08T23:51:10.141Z,15.25
2022-10-08T23:53:37.299Z,15.27
2022-10-08T23:56:04.786Z,16.58
2022-10-08T23:58:31.886Z,14.95
